»·PEaware :: POE520 KSNA-KLAS

POE520 :: KSNA-KLAS

FLIGHT INFORMATION

Flight Status: Arrived
Operator: Porter Airlines
More flights by this operator :: More flights under this callsign
Pilot: William B. (10095)
Aircraft: DEHAVILLAND DASH 8 400
(DH8D)
More flights by this aircraft type
Origin: KSNA John Wayne-Orange Co
United States
Destination: KLAS McCarran Intl
United States
More flights between these airports :: More routes between these airports
Route: +MUSEL8 DAG CRESO3
File this flight plan on PilotEdge
Remarks: P3d V3.4
Altitude:
(Current/Filed)
250ft
Speed:
(Current/Filed)
320kts
Departed: 16-Feb-17 07:12 PM
Arrived: 16-Feb-17 08:14 PM
Distance/Time
Traveled:
197nm/1:02
Distance/Time
To Go:
Arrived

Flight Plot

Page will automatically refresh every two minutes.


Map Options




Map Legend


Flown Route
Filed Route
Departure Airport
Arrival Airport
Navaid (VOR, NDB)
Fix

Horizontal Profiles

Position Reports

Time Latitude Longitude Heading Altitude Ground
Speed
16-Feb-17 18:52 33.677619 -117.863262 116 63ft 0kts
16-Feb-17 18:53 33.677619 -117.863262 116 63ft 0kts
16-Feb-17 18:54 33.677619 -117.863262 116 63ft 0kts
16-Feb-17 18:55 33.677619 -117.863262 116 63ft 0kts
16-Feb-17 18:56 33.677619 -117.863262 116 63ft 0kts
16-Feb-17 18:57 33.677619 -117.863262 116 63ft 0kts
16-Feb-17 18:58 33.677619 -117.863262 116 63ft 0kts
16-Feb-17 18:59 33.677619 -117.863262 116 63ft 0kts
16-Feb-17 19:00 33.677730 -117.863560 108 63ft 2kts
16-Feb-17 19:01 33.677713 -117.864087 27 63ft 4kts
16-Feb-17 19:02 33.677925 -117.863955 27 63ft 0kts
16-Feb-17 19:03 33.677933 -117.863953 27 63ft 0kts
16-Feb-17 19:04 33.677940 -117.863951 27 63ft 0kts
16-Feb-17 19:05 33.677947 -117.863949 27 63ft 0kts
16-Feb-17 19:06 33.680615 -117.863069 299 63ft 0kts
16-Feb-17 19:07 33.680617 -117.863071 299 63ft 0kts
16-Feb-17 19:08 33.680620 -117.863075 299 63ft 1kts
16-Feb-17 19:09 33.681096 -117.864054 295 63ft 0kts
16-Feb-17 19:10 33.681097 -117.864055 295 63ft 0kts
16-Feb-17 19:11 33.681106 -117.864076 295 63ft 5kts
16-Feb-17 19:12 33.679087 -117.866694 206 64ft 74kts
16-Feb-17 19:13 33.643168 -117.883504 196 2436ft 160kts
16-Feb-17 19:14 33.592174 -117.909171 224 4360ft 236kts
16-Feb-17 19:15 33.601896 -117.982836 325 6214ft 266kts
16-Feb-17 19:16 33.670939 -118.012434 342 8271ft 267kts
16-Feb-17 19:17 33.740674 -118.038629 342 10630ft 258kts
16-Feb-17 19:18 33.808089 -118.027589 26 13030ft 260kts
16-Feb-17 19:19 33.869755 -117.977066 31 15140ft 279kts
16-Feb-17 19:20 33.933868 -117.918325 31 16961ft 303kts
16-Feb-17 19:21 34.002065 -117.856281 31 18660ft 312kts
16-Feb-17 19:22 34.070656 -117.794190 32 20335ft 315kts
16-Feb-17 19:23 34.130613 -117.716623 42 22026ft 321kts
16-Feb-17 19:24 34.189387 -117.636980 40 23716ft 319kts
16-Feb-17 19:25 34.248459 -117.557450 40 25074ft 326kts
16-Feb-17 19:26 34.310616 -117.473638 41 25084ft 338kts
16-Feb-17 19:27 34.372139 -117.389779 41 25084ft 336kts
16-Feb-17 19:28 34.433684 -117.305988 41 25085ft 335kts
16-Feb-17 19:29 34.495834 -117.223648 41 25095ft 334kts
16-Feb-17 19:30 34.556455 -117.138205 41 25111ft 333kts
16-Feb-17 19:31 34.618125 -117.053804 41 25116ft 333kts
16-Feb-17 19:32 34.679812 -116.969140 41 25109ft 333kts
16-Feb-17 19:33 34.741556 -116.884074 41 25093ft 334kts
16-Feb-17 19:34 34.803819 -116.798119 41 25081ft 334kts
16-Feb-17 19:35 34.865342 -116.712969 41 25077ft 334kts
16-Feb-17 19:36 34.926421 -116.628235 41 25079ft 333kts
16-Feb-17 19:37 34.987985 -116.542635 41 25084ft 333kts
16-Feb-17 19:38 35.054355 -116.464205 30 25088ft 326kts
16-Feb-17 19:39 35.126154 -116.394938 31 25091ft 326kts
16-Feb-17 19:40 35.197773 -116.325346 31 25093ft 326kts
16-Feb-17 19:41 35.269331 -116.255678 31 25094ft 325kts
16-Feb-17 19:42 35.340317 -116.185266 36 25093ft 329kts
16-Feb-17 19:43 35.399304 -116.097809 44 23944ft 325kts
16-Feb-17 19:44 35.456623 -116.012180 44 21998ft 324kts
16-Feb-17 19:45 35.514998 -115.925128 46 19871ft 322kts
16-Feb-17 19:46 35.570547 -115.841405 47 17755ft 307kts
16-Feb-17 19:47 35.623228 -115.761003 48 15626ft 295kts
16-Feb-17 19:48 35.689065 -115.708915 19 13558ft 296kts
16-Feb-17 19:49 35.764439 -115.670706 20 13431ft 287kts
16-Feb-17 19:50 35.837137 -115.633106 20 13436ft 289kts
16-Feb-17 19:51 35.911824 -115.594425 20 13437ft 293kts
16-Feb-17 19:52 35.977617 -115.535874 58 12801ft 303kts
16-Feb-17 19:53 36.010490 -115.442433 66 11349ft 299kts
16-Feb-17 19:54 36.029204 -115.351368 90 11219ft 269kts
16-Feb-17 19:55 36.022810 -115.264806 92 9770ft 279kts
16-Feb-17 19:56 36.016500 -115.171500 92 8167ft 259kts
16-Feb-17 19:57 36.011005 -115.088464 92 6592ft 232kts
16-Feb-17 19:58 36.005402 -115.006549 92 6366ft 245kts
16-Feb-17 19:59 35.999750 -114.924419 92 5515ft 230kts
16-Feb-17 20:00 35.994596 -114.846365 92 5367ft 228kts
16-Feb-17 20:01 35.989433 -114.768838 92 5363ft 225kts
16-Feb-17 20:02 35.984223 -114.691289 92 5361ft 225kts
16-Feb-17 20:03 35.978921 -114.613528 92 5358ft 225kts
16-Feb-17 20:04 36.014833 -114.569935 353 5357ft 213kts
16-Feb-17 20:05 36.064752 -114.599027 288 5357ft 215kts
16-Feb-17 20:06 36.067281 -114.673825 262 5361ft 231kts
16-Feb-17 20:07 36.057124 -114.753952 262 5358ft 241kts
16-Feb-17 20:08 36.046640 -114.836838 262 5360ft 245kts
16-Feb-17 20:09 36.057982 -114.916497 298 4818ft 234kts
16-Feb-17 20:10 36.072873 -114.987996 265 4173ft 207kts
16-Feb-17 20:11 36.072832 -115.048781 274 3369ft 152kts
16-Feb-17 20:12 36.073346 -115.099383 273 2636ft 150kts
16-Feb-17 20:13 36.073645 -115.141276 270 2123ft 52kts
16-Feb-17 20:14 36.076225 -115.146546 0 2122ft 5kts
16-Feb-17 20:15 36.079553 -115.147634 341 2122ft 26kts

Navigation Log

Ident Type
Flight plan parsing failed, navigation log unavailable